sensor_id;sensor_type;location;lat;lon;timestamp;temperature;humidity
20732;DHT22;10527;52.124;5.196;2022-12-18T00:01:35;-1.30;99.90
20732;DHT22;10527;52.124;5.196;2022-12-18T00:04:05;-1.40;99.90
20732;DHT22;10527;52.124;5.196;2022-12-18T00:06:38;-1.30;99.90
20732;DHT22;10527;52.124;5.196;2022-12-18T00:09:06;-1.30;99.90
20732;DHT22;10527;52.124;5.196;2022-12-18T00:11:33;-1.40;99.90
20732;DHT22;10527;52.124;5.196;2022-12-18T00:14:00;-1.50;99.90
20732;DHT22;10527;52.124;5.196;2022-12-18T00:16:28;-1.40;99.90
20732;DHT22;10527;52.124;5.196;2022-12-18T00:18:57;-1.40;99.90
20732;DHT22;10527;52.124;5.196;2022-12-18T00:21:26;-1.50;99.90
20732;DHT22;10527;52.124;5.196;2022-12-18T00:23:54;-1.60;99.90
20732;DHT22;10527;52.124;5.196;2022-12-18T00:26:24;-1.60;99.90
20732;DHT22;10527;52.124;5.196;2022-12-18T00:28:59;-1.60;99.90
20732;DHT22;10527;52.124;5.196;2022-12-18T00:31:45;-1.50;99.90
20732;DHT22;10527;52.124;5.196;2022-12-18T00:34:13;-1.50;99.90
20732;DHT22;10527;52.124;5.196;2022-12-18T00:36:41;-1.50;99.90
20732;DHT22;10527;52.124;5.196;2022-12-18T00:39:08;-1.50;99.90
20732;DHT22;10527;52.124;5.196;2022-12-18T00:41:36;-1.50;99.90
20732;DHT22;10527;52.124;5.196;2022-12-18T00:44:21;-1.50;99.90
20732;DHT22;10527;52.124;5.196;2022-12-18T00:46:48;-1.50;99.90
20732;DHT22;10527;52.124;5.196;2022-12-18T00:49:34;-1.60;99.90
20732;DHT22;10527;52.124;5.196;2022-12-18T00:52:01;-1.60;99.90
20732;DHT22;10527;52.124;5.196;2022-12-18T00:54:28;-1.60;99.90
20732;DHT22;10527;52.124;5.196;2022-12-18T00:56:56;-1.60;99.90
20732;DHT22;10527;52.124;5.196;2022-12-18T00:59:23;-1.70;99.90
20732;DHT22;10527;52.124;5.196;2022-12-18T01:01:50;-1.70;99.90
20732;DHT22;10527;52.124;5.196;2022-12-18T01:04:17;-1.60;99.90
20732;DHT22;10527;52.124;5.196;2022-12-18T01:06:43;-1.70;99.90
20732;DHT22;10527;52.124;5.196;2022-12-18T01:09:10;-1.60;99.90
20732;DHT22;10527;52.124;5.196;2022-12-18T01:11:38;-1.50;99.90
20732;DHT22;10527;52.124;5.196;2022-12-18T01:14:06;-1.50;99.90
20732;DHT22;10527;52.124;5.196;2022-12-18T01:16:35;-1.60;99.90
20732;DHT22;10527;52.124;5.196;2022-12-18T01:19:02;-1.60;99.90
20732;DHT22;10527;52.124;5.196;2022-12-18T01:21:28;-1.60;99.90
20732;DHT22;10527;52.124;5.196;2022-12-18T01:23:56;-1.60;99.90
20732;DHT22;10527;52.124;5.196;2022-12-18T01:26:25;-1.60;99.90
20732;DHT22;10527;52.124;5.196;2022-12-18T01:28:57;-1.70;99.90
20732;DHT22;10527;52.124;5.196;2022-12-18T01:31:29;-1.60;99.90
20732;DHT22;10527;52.124;5.196;2022-12-18T01:34:01;-1.70;99.90
20732;DHT22;10527;52.124;5.196;2022-12-18T01:36:34;-1.70;99.90
20732;DHT22;10527;52.124;5.196;2022-12-18T01:39:09;-1.70;99.90
20732;DHT22;10527;52.124;5.196;2022-12-18T01:41:38;-1.70;99.90
20732;DHT22;10527;52.124;5.196;2022-12-18T01:50:21;-1.70;99.90
20732;DHT22;10527;52.124;5.196;2022-12-18T01:53:13;-1.90;99.90
20732;DHT22;10527;52.124;5.196;2022-12-18T01:55:48;-1.80;99.90
20732;DHT22;10527;52.124;5.196;2022-12-18T01:58:19;-1.80;99.90
20732;DHT22;10527;52.124;5.196;2022-12-18T02:00:54;-1.70;99.90
20732;DHT22;10527;52.124;5.196;2022-12-18T02:03:21;-1.70;99.90
20732;DHT22;10527;52.124;5.196;2022-12-18T02:06:09;-1.80;99.90
20732;DHT22;10527;52.124;5.196;2022-12-18T02:08:58;-1.90;99.90
20732;DHT22;10527;52.124;5.196;2022-12-18T02:12:05;-1.90;99.90
20732;DHT22;10527;52.124;5.196;2022-12-18T02:17:34;-1.80;99.90
20732;DHT22;10527;52.124;5.196;2022-12-18T02:28:51;-1.90;99.90
20732;DHT22;10527;52.124;5.196;2022-12-18T02:31:27;-1.90;99.90
20732;DHT22;10527;52.124;5.196;2022-12-18T02:34:01;-1.90;99.90
20732;DHT22;10527;52.124;5.196;2022-12-18T02:36:32;-1.90;99.90
20732;DHT22;10527;52.124;5.196;2022-12-18T02:39:02;-1.90;99.90
20732;DHT22;10527;52.124;5.196;2022-12-18T02:41:36;-1.90;99.90
20732;DHT22;10527;52.124;5.196;2022-12-18T02:44:12;-1.90;99.90
20732;DHT22;10527;52.124;5.196;2022-12-18T02:46:43;-1.90;99.90
20732;DHT22;10527;52.124;5.196;2022-12-18T02:49:26;-1.90;99.90
20732;DHT22;10527;52.124;5.196;2022-12-18T02:55:20;-1.90;99.90
20732;DHT22;10527;52.124;5.196;2022-12-18T02:58:11;-1.90;99.90
20732;DHT22;10527;52.124;5.196;2022-12-18T03:01:03;-1.90;99.90
20732;DHT22;10527;52.124;5.196;2022-12-18T03:03:47;-2.00;99.90
20732;DHT22;10527;52.124;5.196;2022-12-18T03:06:32;-2.00;99.90
20732;DHT22;10527;52.124;5.196;2022-12-18T03:09:32;-2.00;99.90
20732;DHT22;10527;52.124;5.196;2022-12-18T03:12:10;-2.00;99.90
20732;DHT22;10527;52.124;5.196;2022-12-18T03:15:10;-2.10;99.90
20732;DHT22;10527;52.124;5.196;2022-12-18T03:17:48;-2.10;99.90
20732;DHT22;10527;52.124;5.196;2022-12-18T03:20:31;-2.10;99.90
20732;DHT22;10527;52.124;5.196;2022-12-18T03:23:09;-2.10;99.90
20732;DHT22;10527;52.124;5.196;2022-12-18T03:25:54;-2.20;99.90
20732;DHT22;10527;52.124;5.196;2022-12-18T03:28:35;-2.20;99.90
20732;DHT22;10527;52.124;5.196;2022-12-18T03:31:09;-2.20;99.90
20732;DHT22;10527;52.124;5.196;2022-12-18T03:33:42;-2.30;99.90
20732;DHT22;10527;52.124;5.196;2022-12-18T03:36:13;-2.20;99.90
20732;DHT22;10527;52.124;5.196;2022-12-18T03:38:41;-2.30;99.90
20732;DHT22;10527;52.124;5.196;2022-12-18T03:41:24;-2.30;99.90
20732;DHT22;10527;52.124;5.196;2022-12-18T03:44:14;-2.30;99.90
20732;DHT22;10527;52.124;5.196;2022-12-18T03:47:18;-2.30;99.90
20732;DHT22;10527;52.124;5.196;2022-12-18T03:52:32;-2.40;99.90
20732;DHT22;10527;52.124;5.196;2022-12-18T03:55:07;-2.30;99.90
20732;DHT22;10527;52.124;5.196;2022-12-18T03:57:36;-2.40;99.90
20732;DHT22;10527;52.124;5.196;2022-12-18T04:00:08;-2.40;99.90
20732;DHT22;10527;52.124;5.196;2022-12-18T04:02:42;-2.40;99.90
20732;DHT22;10527;52.124;5.196;2022-12-18T04:05:13;-2.40;99.90
20732;DHT22;10527;52.124;5.196;2022-12-18T04:07:42;-2.50;99.90
20732;DHT22;10527;52.124;5.196;2022-12-18T04:10:12;-2.50;99.90
20732;DHT22;10527;52.124;5.196;2022-12-18T04:12:41;-2.50;99.90
20732;DHT22;10527;52.124;5.196;2022-12-18T04:15:09;-2.50;99.90
20732;DHT22;10527;52.124;5.196;2022-12-18T04:17:48;-2.50;99.90
20732;DHT22;10527;52.124;5.196;2022-12-18T04:20:17;-2.60;99.90
20732;DHT22;10527;52.124;5.196;2022-12-18T04:22:44;-2.50;99.90
20732;DHT22;10527;52.124;5.196;2022-12-18T04:25:11;-2.70;99.90
20732;DHT22;10527;52.124;5.196;2022-12-18T04:27:38;-2.60;99.90
20732;DHT22;10527;52.124;5.196;2022-12-18T04:30:06;-2.70;99.90
20732;DHT22;10527;52.124;5.196;2022-12-18T04:32:34;-2.70;99.90
20732;DHT22;10527;52.124;5.196;2022-12-18T04:35:01;-2.70;99.90
20732;DHT22;10527;52.124;5.196;2022-12-18T04:37:28;-2.70;99.90
20732;DHT22;10527;52.124;5.196;2022-12-18T04:39:55;-2.70;99.90
20732;DHT22;10527;52.124;5.196;2022-12-18T04:42:22;-2.70;99.90
20732;DHT22;10527;52.124;5.196;2022-12-18T04:44:48;-2.70;99.90
20732;DHT22;10527;52.124;5.196;2022-12-18T04:47:16;-2.80;99.90
20732;DHT22;10527;52.124;5.196;2022-12-18T04:49:43;-2.80;99.90
20732;DHT22;10527;52.124;5.196;2022-12-18T04:52:10;-2.80;99.90
20732;DHT22;10527;52.124;5.196;2022-12-18T04:54:36;-2.80;99.90
20732;DHT22;10527;52.124;5.196;2022-12-18T04:57:03;-2.80;99.90
20732;DHT22;10527;52.124;5.196;2022-12-18T04:59:30;-2.80;99.90
20732;DHT22;10527;52.124;5.196;2022-12-18T05:01:57;-2.80;99.90
20732;DHT22;10527;52.124;5.196;2022-12-18T05:04:24;-2.70;99.90
20732;DHT22;10527;52.124;5.196;2022-12-18T05:06:50;-2.80;99.90
20732;DHT22;10527;52.124;5.196;2022-12-18T05:09:17;-2.80;99.90
20732;DHT22;10527;52.124;5.196;2022-12-18T05:11:45;-2.80;99.90
20732;DHT22;10527;52.124;5.196;2022-12-18T05:14:13;-2.80;99.90
20732;DHT22;10527;52.124;5.196;2022-12-18T05:16:39;-2.80;99.90
20732;DHT22;10527;52.124;5.196;2022-12-18T05:19:06;-2.90;99.90
20732;DHT22;10527;52.124;5.196;2022-12-18T05:21:33;-2.90;99.90
20732;DHT22;10527;52.124;5.196;2022-12-18T05:24:00;-2.90;99.90
20732;DHT22;10527;52.124;5.196;2022-12-18T05:26:27;-2.90;99.90
20732;DHT22;10527;52.124;5.196;2022-12-18T05:28:55;-2.90;99.90
20732;DHT22;10527;52.124;5.196;2022-12-18T05:31:24;-2.90;99.90
20732;DHT22;10527;52.124;5.196;2022-12-18T05:33:54;-3.00;99.90
20732;DHT22;10527;52.124;5.196;2022-12-18T05:36:20;-3.00;99.90
20732;DHT22;10527;52.124;5.196;2022-12-18T05:38:47;-2.90;99.90
20732;DHT22;10527;52.124;5.196;2022-12-18T05:41:15;-3.00;99.90
20732;DHT22;10527;52.124;5.196;2022-12-18T05:43:42;-3.00;99.90
20732;DHT22;10527;52.124;5.196;2022-12-18T05:46:15;-2.90;99.90
20732;DHT22;10527;52.124;5.196;2022-12-18T05:48:44;-3.00;99.90
20732;DHT22;10527;52.124;5.196;2022-12-18T05:51:14;-3.00;99.90
20732;DHT22;10527;52.124;5.196;2022-12-18T05:53:43;-3.00;99.90
20732;DHT22;10527;52.124;5.196;2022-12-18T05:56:16;-3.00;99.90
20732;DHT22;10527;52.124;5.196;2022-12-18T05:58:45;-3.00;99.90
20732;DHT22;10527;52.124;5.196;2022-12-18T06:01:18;-3.10;99.90
20732;DHT22;10527;52.124;5.196;2022-12-18T06:03:48;-3.10;99.90
20732;DHT22;10527;52.124;5.196;2022-12-18T06:06:21;-3.10;99.90
20732;DHT22;10527;52.124;5.196;2022-12-18T06:08:50;-3.00;99.90
20732;DHT22;10527;52.124;5.196;2022-12-18T06:11:21;-3.00;99.90
20732;DHT22;10527;52.124;5.196;2022-12-18T06:13:51;-3.10;99.90
20732;DHT22;10527;52.124;5.196;2022-12-18T06:16:24;-3.20;99.90
20732;DHT22;10527;52.124;5.196;2022-12-18T06:18:52;-3.20;99.90
20732;DHT22;10527;52.124;5.196;2022-12-18T06:21:19;-3.10;99.90
20732;DHT22;10527;52.124;5.196;2022-12-18T06:23:46;-3.20;99.90
20732;DHT22;10527;52.124;5.196;2022-12-18T06:26:15;-3.20;99.90
20732;DHT22;10527;52.124;5.196;2022-12-18T06:28:42;-3.20;99.90
20732;DHT22;10527;52.124;5.196;2022-12-18T06:31:11;-3.10;99.90
20732;DHT22;10527;52.124;5.196;2022-12-18T06:33:38;-3.20;99.90
20732;DHT22;10527;52.124;5.196;2022-12-18T06:36:11;-3.20;99.90
20732;DHT22;10527;52.124;5.196;2022-12-18T06:38:41;-3.20;99.90
20732;DHT22;10527;52.124;5.196;2022-12-18T06:41:15;-3.20;99.90
20732;DHT22;10527;52.124;5.196;2022-12-18T06:43:44;-3.20;99.90
20732;DHT22;10527;52.124;5.196;2022-12-18T06:46:11;-3.20;99.90
20732;DHT22;10527;52.124;5.196;2022-12-18T06:48:39;-3.30;99.90
20732;DHT22;10527;52.124;5.196;2022-12-18T06:51:06;-3.30;99.90
20732;DHT22;10527;52.124;5.196;2022-12-18T06:53:34;-3.30;99.90
20732;DHT22;10527;52.124;5.196;2022-12-18T06:56:06;-3.30;99.90
20732;DHT22;10527;52.124;5.196;2022-12-18T06:58:40;-3.40;99.90
20732;DHT22;10527;52.124;5.196;2022-12-18T07:01:10;-3.40;99.90
20732;DHT22;10527;52.124;5.196;2022-12-18T07:03:39;-3.30;99.90
20732;DHT22;10527;52.124;5.196;2022-12-18T07:06:14;-3.30;99.90
20732;DHT22;10527;52.124;5.196;2022-12-18T07:08:43;-3.40;99.90
20732;DHT22;10527;52.124;5.196;2022-12-18T07:11:10;-3.40;99.90
20732;DHT22;10527;52.124;5.196;2022-12-18T07:13:37;-3.40;99.90
20732;DHT22;10527;52.124;5.196;2022-12-18T07:16:09;-3.40;99.90
20732;DHT22;10527;52.124;5.196;2022-12-18T07:18:46;-3.40;99.90
20732;DHT22;10527;52.124;5.196;2022-12-18T07:21:16;-3.40;99.90
20732;DHT22;10527;52.124;5.196;2022-12-18T07:23:45;-3.40;99.90
20732;DHT22;10527;52.124;5.196;2022-12-18T07:26:16;-3.40;99.90
20732;DHT22;10527;52.124;5.196;2022-12-18T07:28:45;-3.40;99.90
20732;DHT22;10527;52.124;5.196;2022-12-18T07:31:19;-3.30;99.90
20732;DHT22;10527;52.124;5.196;2022-12-18T07:33:48;-3.30;99.90
20732;DHT22;10527;52.124;5.196;2022-12-18T07:36:16;-3.30;99.90
20732;DHT22;10527;52.124;5.196;2022-12-18T07:38:47;-3.30;99.90
20732;DHT22;10527;52.124;5.196;2022-12-18T07:41:14;-3.30;99.90
20732;DHT22;10527;52.124;5.196;2022-12-18T07:43:42;-3.40;99.90
20732;DHT22;10527;52.124;5.196;2022-12-18T07:46:12;-3.40;99.90
20732;DHT22;10527;52.124;5.196;2022-12-18T07:48:41;-3.40;99.90
20732;DHT22;10527;52.124;5.196;2022-12-18T07:51:12;-3.40;99.90
20732;DHT22;10527;52.124;5.196;2022-12-18T07:53:39;-3.40;99.90
20732;DHT22;10527;52.124;5.196;2022-12-18T07:56:10;-3.50;99.90
20732;DHT22;10527;52.124;5.196;2022-12-18T07:58:57;-3.50;99.90
20732;DHT22;10527;52.124;5.196;2022-12-18T08:01:24;-3.40;99.90
20732;DHT22;10527;52.124;5.196;2022-12-18T08:03:52;-3.40;99.90
20732;DHT22;10527;52.124;5.196;2022-12-18T08:06:19;-3.40;99.90
20732;DHT22;10527;52.124;5.196;2022-12-18T08:08:54;-3.40;99.90
20732;DHT22;10527;52.124;5.196;2022-12-18T08:11:23;-3.50;99.90
20732;DHT22;10527;52.124;5.196;2022-12-18T08:13:52;-3.30;99.90
20732;DHT22;10527;52.124;5.196;2022-12-18T08:16:20;-3.40;99.90
20732;DHT22;10527;52.124;5.196;2022-12-18T08:18:52;-3.30;99.90
20732;DHT22;10527;52.124;5.196;2022-12-18T08:21:26;-3.30;99.90
20732;DHT22;10527;52.124;5.196;2022-12-18T08:23:57;-3.30;99.90
20732;DHT22;10527;52.124;5.196;2022-12-18T08:26:29;-3.30;99.90
20732;DHT22;10527;52.124;5.196;2022-12-18T08:28:59;-3.30;99.90
20732;DHT22;10527;52.124;5.196;2022-12-18T08:31:27;-3.30;99.90
20732;DHT22;10527;52.124;5.196;2022-12-18T08:33:56;-3.20;99.90
20732;DHT22;10527;52.124;5.196;2022-12-18T08:36:24;-3.20;99.90
20732;DHT22;10527;52.124;5.196;2022-12-18T08:38:52;-3.20;99.90
20732;DHT22;10527;52.124;5.196;2022-12-18T08:41:20;-3.10;99.90
20732;DHT22;10527;52.124;5.196;2022-12-18T08:43:48;-3.10;99.90
20732;DHT22;10527;52.124;5.196;2022-12-18T08:46:38;-3.00;99.90
20732;DHT22;10527;52.124;5.196;2022-12-18T08:49:07;-3.00;99.90
20732;DHT22;10527;52.124;5.196;2022-12-18T08:51:38;-3.00;99.90
20732;DHT22;10527;52.124;5.196;2022-12-18T08:54:06;-3.00;99.90
20732;DHT22;10527;52.124;5.196;2022-12-18T08:56:34;-3.00;99.90
20732;DHT22;10527;52.124;5.196;2022-12-18T08:59:02;-3.00;99.90
20732;DHT22;10527;52.124;5.196;2022-12-18T09:01:29;-3.00;99.90
20732;DHT22;10527;52.124;5.196;2022-12-18T09:03:57;-3.00;99.90
20732;DHT22;10527;52.124;5.196;2022-12-18T09:06:24;-2.90;99.90
20732;DHT22;10527;52.124;5.196;2022-12-18T09:08:53;-3.00;99.90
20732;DHT22;10527;52.124;5.196;2022-12-18T09:11:24;-2.90;99.90
20732;DHT22;10527;52.124;5.196;2022-12-18T09:13:55;-2.90;99.90
20732;DHT22;10527;52.124;5.196;2022-12-18T09:16:25;-2.80;99.90
20732;DHT22;10527;52.124;5.196;2022-12-18T09:18:59;-2.80;99.90
20732;DHT22;10527;52.124;5.196;2022-12-18T09:21:31;-2.80;99.90
20732;DHT22;10527;52.124;5.196;2022-12-18T09:24:05;-2.70;99.90
20732;DHT22;10527;52.124;5.196;2022-12-18T09:26:34;-2.70;99.90
20732;DHT22;10527;52.124;5.196;2022-12-18T09:29:03;-2.70;99.90
20732;DHT22;10527;52.124;5.196;2022-12-18T09:31:30;-2.70;99.90
20732;DHT22;10527;52.124;5.196;2022-12-18T09:33:57;-2.60;99.90
20732;DHT22;10527;52.124;5.196;2022-12-18T09:36:24;-2.60;99.90
20732;DHT22;10527;52.124;5.196;2022-12-18T09:38:51;-2.50;99.90
20732;DHT22;10527;52.124;5.196;2022-12-18T09:41:40;-2.60;99.90
20732;DHT22;10527;52.124;5.196;2022-12-18T09:44:23;-2.60;99.90
20732;DHT22;10527;52.124;5.196;2022-12-18T09:47:34;-2.60;99.90
20732;DHT22;10527;52.124;5.196;2022-12-18T09:50:15;-2.40;99.90
20732;DHT22;10527;52.124;5.196;2022-12-18T09:52:54;-2.40;99.90
20732;DHT22;10527;52.124;5.196;2022-12-18T09:55:30;-2.30;99.90
20732;DHT22;10527;52.124;5.196;2022-12-18T09:58:20;-2.40;99.90
20732;DHT22;10527;52.124;5.196;2022-12-18T10:00:54;-2.50;99.90
20732;DHT22;10527;52.124;5.196;2022-12-18T10:03:22;-2.30;99.90
20732;DHT22;10527;52.124;5.196;2022-12-18T10:06:14;-2.40;99.90
20732;DHT22;10527;52.124;5.196;2022-12-18T10:12:20;-2.30;99.90
20732;DHT22;10527;52.124;5.196;2022-12-18T10:18:10;-2.20;99.90
20732;DHT22;10527;52.124;5.196;2022-12-18T10:20:51;-2.20;99.90
20732;DHT22;10527;52.124;5.196;2022-12-18T10:23:39;-2.10;99.90
20732;DHT22;10527;52.124;5.196;2022-12-18T10:26:17;-2.20;99.90
20732;DHT22;10527;52.124;5.196;2022-12-18T10:28:45;-2.10;99.90
20732;DHT22;10527;52.124;5.196;2022-12-18T10:31:18;-2.10;99.90
20732;DHT22;10527;52.124;5.196;2022-12-18T10:33:50;-2.00;99.90
20732;DHT22;10527;52.124;5.196;2022-12-18T10:36:22;-2.00;99.90
20732;DHT22;10527;52.124;5.196;2022-12-18T10:38:51;-2.00;99.90
20732;DHT22;10527;52.124;5.196;2022-12-18T10:43:47;-2.00;99.90
20732;DHT22;10527;52.124;5.196;2022-12-18T10:46:17;-2.00;99.90
20732;DHT22;10527;52.124;5.196;2022-12-18T10:54:04;-1.80;99.90
20732;DHT22;10527;52.124;5.196;2022-12-18T10:56:38;-1.80;99.90
20732;DHT22;10527;52.124;5.196;2022-12-18T10:59:15;-1.70;99.90
20732;DHT22;10527;52.124;5.196;2022-12-18T11:01:51;-1.80;99.90
20732;DHT22;10527;52.124;5.196;2022-12-18T11:04:27;-1.60;99.90
20732;DHT22;10527;52.124;5.196;2022-12-18T11:09:34;-1.70;99.90
20732;DHT22;10527;52.124;5.196;2022-12-18T11:12:25;-1.60;99.90
20732;DHT22;10527;52.124;5.196;2022-12-18T11:14:58;-1.50;99.90
20732;DHT22;10527;52.124;5.196;2022-12-18T11:17:31;-1.50;99.90
20732;DHT22;10527;52.124;5.196;2022-12-18T11:20:24;-1.50;99.90
20732;DHT22;10527;52.124;5.196;2022-12-18T11:23:03;-1.40;99.90
20732;DHT22;10527;52.124;5.196;2022-12-18T11:25:33;-1.40;99.90
20732;DHT22;10527;52.124;5.196;2022-12-18T11:28:29;-1.40;99.90
20732;DHT22;10527;52.124;5.196;2022-12-18T11:31:20;-1.40;99.90
20732;DHT22;10527;52.124;5.196;2022-12-18T11:37:00;-1.10;99.90
20732;DHT22;10527;52.124;5.196;2022-12-18T11:39:40;-1.30;99.90
20732;DHT22;10527;52.124;5.196;2022-12-18T11:42:27;-1.20;99.90
20732;DHT22;10527;52.124;5.196;2022-12-18T11:45:17;-1.20;99.90
20732;DHT22;10527;52.124;5.196;2022-12-18T11:48:14;-1.20;99.90
20732;DHT22;10527;52.124;5.196;2022-12-18T11:50:53;-1.20;99.90
20732;DHT22;10527;52.124;5.196;2022-12-18T11:53:25;-1.20;99.90
20732;DHT22;10527;52.124;5.196;2022-12-18T12:05:01;-1.10;99.90
20732;DHT22;10527;52.124;5.196;2022-12-18T12:07:56;-1.00;99.90
20732;DHT22;10527;52.124;5.196;2022-12-18T12:10:38;-1.10;99.90
20732;DHT22;10527;52.124;5.196;2022-12-18T12:16:24;-0.90;99.90
20732;DHT22;10527;52.124;5.196;2022-12-18T12:19:25;-0.90;99.90
20732;DHT22;10527;52.124;5.196;2022-12-18T12:25:02;-0.90;99.90
20732;DHT22;10527;52.124;5.196;2022-12-18T12:39:40;-0.60;99.90
20732;DHT22;10527;52.124;5.196;2022-12-18T12:42:20;-0.70;99.90
20732;DHT22;10527;52.124;5.196;2022-12-18T12:45:36;-0.70;99.90
20732;DHT22;10527;52.124;5.196;2022-12-18T12:48:16;-0.60;99.90
20732;DHT22;10527;52.124;5.196;2022-12-18T12:50:50;-0.60;99.90
20732;DHT22;10527;52.124;5.196;2022-12-18T12:53:30;-0.60;99.90
20732;DHT22;10527;52.124;5.196;2022-12-18T12:56:02;-0.60;99.90
20732;DHT22;10527;52.124;5.196;2022-12-18T13:01:47;-0.50;99.90
20732;DHT22;10527;52.124;5.196;2022-12-18T13:07:41;-0.50;99.90
20732;DHT22;10527;52.124;5.196;2022-12-18T13:13:09;-0.50;99.90
20732;DHT22;10527;52.124;5.196;2022-12-18T13:16:07;-0.60;99.90
20732;DHT22;10527;52.124;5.196;2022-12-18T13:18:35;-0.40;99.90
20732;DHT22;10527;52.124;5.196;2022-12-18T13:21:13;-0.40;99.90
20732;DHT22;10527;52.124;5.196;2022-12-18T13:23:50;-0.50;99.90
20732;DHT22;10527;52.124;5.196;2022-12-18T13:28:56;-0.40;99.90
20732;DHT22;10527;52.124;5.196;2022-12-18T13:36:56;-0.40;99.90
20732;DHT22;10527;52.124;5.196;2022-12-18T13:39:43;-0.30;99.90
20732;DHT22;10527;52.124;5.196;2022-12-18T13:44:57;-0.40;99.90
20732;DHT22;10527;52.124;5.196;2022-12-18T13:47:31;-0.30;99.90
20732;DHT22;10527;52.124;5.196;2022-12-18T13:50:27;-0.40;99.90
20732;DHT22;10527;52.124;5.196;2022-12-18T13:53:03;-0.40;99.90
20732;DHT22;10527;52.124;5.196;2022-12-18T13:55:32;-0.40;99.90
20732;DHT22;10527;52.124;5.196;2022-12-18T13:58:06;-0.30;99.90
20732;DHT22;10527;52.124;5.196;2022-12-18T14:00:42;-0.30;99.90
20732;DHT22;10527;52.124;5.196;2022-12-18T14:03:40;-0.30;99.90
20732;DHT22;10527;52.124;5.196;2022-12-18T14:06:08;-0.30;99.90
20732;DHT22;10527;52.124;5.196;2022-12-18T14:08:43;-0.20;99.90
20732;DHT22;10527;52.124;5.196;2022-12-18T14:11:20;-0.30;99.90
20732;DHT22;10527;52.124;5.196;2022-12-18T14:13:53;-0.30;99.90
20732;DHT22;10527;52.124;5.196;2022-12-18T14:16:20;-0.20;99.90
20732;DHT22;10527;52.124;5.196;2022-12-18T14:18:53;-0.20;99.90
20732;DHT22;10527;52.124;5.196;2022-12-18T14:21:32;-0.20;99.90
20732;DHT22;10527;52.124;5.196;2022-12-18T14:24:18;-0.20;99.90
20732;DHT22;10527;52.124;5.196;2022-12-18T14:26:48;-0.20;99.90
20732;DHT22;10527;52.124;5.196;2022-12-18T14:29:30;-0.20;99.90
20732;DHT22;10527;52.124;5.196;2022-12-18T14:32:10;-0.20;99.90
20732;DHT22;10527;52.124;5.196;2022-12-18T14:34:49;-0.20;99.90
20732;DHT22;10527;52.124;5.196;2022-12-18T14:37:21;-0.20;99.90
20732;DHT22;10527;52.124;5.196;2022-12-18T14:39:58;-0.20;99.90
20732;DHT22;10527;52.124;5.196;2022-12-18T14:42:36;-0.10;99.90
20732;DHT22;10527;52.124;5.196;2022-12-18T14:50:39;-0.20;99.90
20732;DHT22;10527;52.124;5.196;2022-12-18T14:53:26;-0.20;99.90
20732;DHT22;10527;52.124;5.196;2022-12-18T14:56:00;-0.10;99.90
20732;DHT22;10527;52.124;5.196;2022-12-18T14:58:28;-0.20;99.90
20732;DHT22;10527;52.124;5.196;2022-12-18T15:00:55;-0.20;99.90
20732;DHT22;10527;52.124;5.196;2022-12-18T15:03:22;-0.20;99.90
20732;DHT22;10527;52.124;5.196;2022-12-18T15:05:50;-0.10;99.90
20732;DHT22;10527;52.124;5.196;2022-12-18T15:08:36;-0.20;99.90
20732;DHT22;10527;52.124;5.196;2022-12-18T15:11:23;-0.10;99.90
20732;DHT22;10527;52.124;5.196;2022-12-18T15:13:54;-0.20;99.90
20732;DHT22;10527;52.124;5.196;2022-12-18T15:16:21;-0.10;99.90
20732;DHT22;10527;52.124;5.196;2022-12-18T15:18:48;-0.10;99.90
20732;DHT22;10527;52.124;5.196;2022-12-18T15:21:19;-0.20;99.90
20732;DHT22;10527;52.124;5.196;2022-12-18T15:23:49;-0.20;99.90
20732;DHT22;10527;52.124;5.196;2022-12-18T15:26:20;-0.10;99.90
20732;DHT22;10527;52.124;5.196;2022-12-18T15:28:55;-0.10;99.90
20732;DHT22;10527;52.124;5.196;2022-12-18T15:31:32;-0.20;99.90
20732;DHT22;10527;52.124;5.196;2022-12-18T15:34:19;-0.10;99.90
20732;DHT22;10527;52.124;5.196;2022-12-18T15:36:47;-0.10;99.90
20732;DHT22;10527;52.124;5.196;2022-12-18T15:39:16;-0.10;99.90
20732;DHT22;10527;52.124;5.196;2022-12-18T15:41:43;-0.10;99.90
20732;DHT22;10527;52.124;5.196;2022-12-18T15:44:31;-0.10;99.90
20732;DHT22;10527;52.124;5.196;2022-12-18T15:46:58;-0.10;99.90
20732;DHT22;10527;52.124;5.196;2022-12-18T15:49:25;-0.10;99.90
20732;DHT22;10527;52.124;5.196;2022-12-18T15:51:54;-0.10;99.90
20732;DHT22;10527;52.124;5.196;2022-12-18T15:54:24;-0.10;99.90
20732;DHT22;10527;52.124;5.196;2022-12-18T15:57:10;-0.10;99.90
20732;DHT22;10527;52.124;5.196;2022-12-18T15:59:52;-0.10;99.90
20732;DHT22;10527;52.124;5.196;2022-12-18T16:02:23;-0.10;99.90
20732;DHT22;10527;52.124;5.196;2022-12-18T16:04:52;-0.10;99.90
20732;DHT22;10527;52.124;5.196;2022-12-18T16:07:20;0.00;99.90
20732;DHT22;10527;52.124;5.196;2022-12-18T16:09:51;0.00;99.90
20732;DHT22;10527;52.124;5.196;2022-12-18T16:12:21;0.00;99.90
20732;DHT22;10527;52.124;5.196;2022-12-18T16:14:50;-0.10;99.90
20732;DHT22;10527;52.124;5.196;2022-12-18T16:17:17;0.00;99.90
20732;DHT22;10527;52.124;5.196;2022-12-18T16:19:44;0.00;99.90
20732;DHT22;10527;52.124;5.196;2022-12-18T16:22:22;0.00;99.90
20732;DHT22;10527;52.124;5.196;2022-12-18T16:24:51;0.00;99.90
20732;DHT22;10527;52.124;5.196;2022-12-18T16:27:21;0.00;99.90
20732;DHT22;10527;52.124;5.196;2022-12-18T16:29:50;-0.10;99.90
20732;DHT22;10527;52.124;5.196;2022-12-18T16:32:19;0.10;99.90
20732;DHT22;10527;52.124;5.196;2022-12-18T16:34:49;0.00;99.90
20732;DHT22;10527;52.124;5.196;2022-12-18T16:37:16;0.00;99.90
20732;DHT22;10527;52.124;5.196;2022-12-18T16:39:43;0.00;99.90
20732;DHT22;10527;52.124;5.196;2022-12-18T16:42:18;0.00;99.90
20732;DHT22;10527;52.124;5.196;2022-12-18T16:44:48;0.00;99.90
20732;DHT22;10527;52.124;5.196;2022-12-18T16:47:16;0.00;99.90
20732;DHT22;10527;52.124;5.196;2022-12-18T16:49:44;-0.10;99.90
20732;DHT22;10527;52.124;5.196;2022-12-18T16:52:11;0.00;99.90
20732;DHT22;10527;52.124;5.196;2022-12-18T16:54:39;0.00;99.90
20732;DHT22;10527;52.124;5.196;2022-12-18T16:57:06;0.00;99.90
20732;DHT22;10527;52.124;5.196;2022-12-18T16:59:35;0.00;99.90
20732;DHT22;10527;52.124;5.196;2022-12-18T17:02:13;0.00;99.90
20732;DHT22;10527;52.124;5.196;2022-12-18T17:04:49;0.10;99.90
20732;DHT22;10527;52.124;5.196;2022-12-18T17:07:18;0.10;99.90
20732;DHT22;10527;52.124;5.196;2022-12-18T17:09:45;0.10;99.90
20732;DHT22;10527;52.124;5.196;2022-12-18T17:12:12;0.10;99.90
20732;DHT22;10527;52.124;5.196;2022-12-18T17:14:39;0.10;99.90
20732;DHT22;10527;52.124;5.196;2022-12-18T17:17:05;0.10;99.90
20732;DHT22;10527;52.124;5.196;2022-12-18T17:19:50;0.10;99.90
20732;DHT22;10527;52.124;5.196;2022-12-18T17:22:19;0.10;99.90
20732;DHT22;10527;52.124;5.196;2022-12-18T17:24:47;0.10;99.90
20732;DHT22;10527;52.124;5.196;2022-12-18T17:27:14;0.10;99.90
20732;DHT22;10527;52.124;5.196;2022-12-18T17:29:41;0.10;99.90
20732;DHT22;10527;52.124;5.196;2022-12-18T17:32:14;0.20;99.90
20732;DHT22;10527;52.124;5.196;2022-12-18T17:34:42;0.10;99.90
20732;DHT22;10527;52.124;5.196;2022-12-18T17:37:09;0.20;99.90
20732;DHT22;10527;52.124;5.196;2022-12-18T17:39:36;0.10;99.90
20732;DHT22;10527;52.124;5.196;2022-12-18T17:42:03;0.10;99.90
20732;DHT22;10527;52.124;5.196;2022-12-18T17:44:31;0.20;99.90
20732;DHT22;10527;52.124;5.196;2022-12-18T17:46:59;0.20;99.90